CGZMA CPL3-CYTZ
Flight info
| Callsign | CGZMA |
|---|---|
| Flight time | 1h 16m |
| Altitude | 8500 |
| Route | APLOV DCT LORKA DCT TESUK |
| Aircraft | C208/L-SDFGR/C |
Departure
| Time | 2026-05-08 23:08 |
|---|---|
| Airport | Kars / Rideau Valley Air Park (CPL3) |
Arrival
| Time | 2026-05-09 00:24 |
|---|---|
| Airport | Billy Bishop Toronto City Airport (CYTZ) |
| Time | Latitude | Longitude | Altitude | Speed | Heading |
|---|---|---|---|---|---|
| 2026-05-08 23:00 | 45.10516 | -75.62318 | 289 ft | 0 kts | 63° |
| 2026-05-08 23:06 | 45.10519 | -75.62309 | 293 ft | 3 kts | 63° |
| 2026-05-08 23:07 | 45.10533 | -75.62271 | 293 ft | 6 kts | 62° |
| 2026-05-08 23:07 | 45.10545 | -75.62212 | 293 ft | 5 kts | 107° |
| 2026-05-08 23:07 | 45.10514 | -75.62201 | 292 ft | 2 kts | 230° |
| 2026-05-08 23:07 | 45.10489 | -75.62271 | 291 ft | 39 kts | 243° |
| 2026-05-08 23:08 | 45.10282 | -75.62930 | 547 ft | 88 kts | 245° |
| 2026-05-08 23:08 | 45.10020 | -75.63773 | 949 ft | 96 kts | 242° |
| 2026-05-08 23:08 | 45.09731 | -75.64563 | 1505 ft | 86 kts | 244° |
| 2026-05-08 23:08 | 45.09452 | -75.65325 | 1976 ft | 89 kts | 244° |
| 2026-05-08 23:09 | 45.09179 | -75.66116 | 2441 ft | 89 kts | 245° |
| 2026-05-08 23:09 | 45.08900 | -75.66887 | 3005 ft | 87 kts | 246° |
| 2026-05-08 23:09 | 45.08628 | -75.67658 | 3570 ft | 88 kts | 246° |
| 2026-05-08 23:09 | 45.08372 | -75.68453 | 4112 ft | 89 kts | 247° |
| 2026-05-08 23:10 | 45.08110 | -75.69248 | 4653 ft | 90 kts | 246° |
| 2026-05-08 23:10 | 45.07841 | -75.70053 | 5165 ft | 91 kts | 246° |
| 2026-05-08 23:10 | 45.07570 | -75.70864 | 5692 ft | 91 kts | 247° |
| 2026-05-08 23:10 | 45.07298 | -75.71681 | 6208 ft | 92 kts | 247° |
| 2026-05-08 23:11 | 45.07022 | -75.72504 | 6680 ft | 92 kts | 246° |
| 2026-05-08 23:11 | 45.06746 | -75.73313 | 7178 ft | 91 kts | 247° |
| 2026-05-08 23:11 | 45.06472 | -75.74123 | 7659 ft | 91 kts | 249° |
| 2026-05-08 23:11 | 45.06200 | -75.74936 | 8143 ft | 92 kts | 250° |
| 2026-05-08 23:12 | 45.05920 | -75.75763 | 8522 ft | 102 kts | 249° |
| 2026-05-08 23:12 | 45.05574 | -75.76812 | 8521 ft | 130 kts | 249° |
| 2026-05-08 23:12 | 45.05162 | -75.78034 | 8517 ft | 144 kts | 248° |
| 2026-05-08 23:12 | 45.04718 | -75.79343 | 8517 ft | 151 kts | 248° |
| 2026-05-08 23:13 | 45.04414 | -75.80236 | 8516 ft | 153 kts | 248° |
| 2026-05-08 23:13 | 45.03949 | -75.81604 | 8517 ft | 156 kts | 248° |
| 2026-05-08 23:13 | 45.03481 | -75.82983 | 8518 ft | 155 kts | 248° |
| 2026-05-08 23:13 | 45.02862 | -75.84803 | 8520 ft | 156 kts | 248° |
| 2026-05-08 23:14 | 45.02389 | -75.86190 | 8520 ft | 157 kts | 248° |
| 2026-05-08 23:14 | 45.02068 | -75.87132 | 8521 ft | 158 kts | 248° |
| 2026-05-08 23:14 | 45.01588 | -75.88542 | 8519 ft | 160 kts | 248° |
| 2026-05-08 23:14 | 45.01102 | -75.89969 | 8521 ft | 162 kts | 248° |
| 2026-05-08 23:15 | 45.00614 | -75.91399 | 8521 ft | 162 kts | 248° |
| 2026-05-08 23:15 | 45.00126 | -75.92835 | 8522 ft | 162 kts | 248° |
| 2026-05-08 23:15 | 44.99635 | -75.94270 | 8523 ft | 162 kts | 248° |
| 2026-05-08 23:15 | 44.99147 | -75.95702 | 8522 ft | 161 kts | 248° |
| 2026-05-08 23:16 | 44.98660 | -75.97126 | 8518 ft | 161 kts | 248° |
| 2026-05-08 23:16 | 44.98213 | -75.98436 | 8525 ft | 160 kts | 248° |
| 2026-05-08 23:16 | 44.97718 | -75.99882 | 8525 ft | 160 kts | 248° |
| 2026-05-08 23:16 | 44.97236 | -76.01292 | 8526 ft | 160 kts | 248° |
| 2026-05-08 23:17 | 44.96758 | -76.02690 | 8523 ft | 160 kts | 248° |
| 2026-05-08 23:17 | 44.96273 | -76.04103 | 8524 ft | 160 kts | 248° |
| 2026-05-08 23:17 | 44.95789 | -76.05520 | 8525 ft | 160 kts | 248° |
| 2026-05-08 23:17 | 44.95302 | -76.06938 | 8526 ft | 161 kts | 248° |
| 2026-05-08 23:18 | 44.94816 | -76.08360 | 8520 ft | 161 kts | 248° |
| 2026-05-08 23:18 | 44.94328 | -76.09781 | 8520 ft | 161 kts | 248° |
| 2026-05-08 23:18 | 44.93841 | -76.11197 | 8520 ft | 160 kts | 248° |
| 2026-05-08 23:18 | 44.93345 | -76.12605 | 8511 ft | 161 kts | 244° |
| 2026-05-08 23:19 | 44.92618 | -76.13821 | 8517 ft | 165 kts | 228° |
| 2026-05-08 23:19 | 44.91638 | -76.14702 | 8508 ft | 171 kts | 211° |
| 2026-05-08 23:19 | 44.90497 | -76.15251 | 8523 ft | 174 kts | 206° |
| 2026-05-08 23:19 | 44.89350 | -76.15791 | 8524 ft | 174 kts | 206° |
| 2026-05-08 23:20 | 44.88202 | -76.16334 | 8519 ft | 174 kts | 206° |
| 2026-05-08 23:20 | 44.87053 | -76.16878 | 8520 ft | 175 kts | 206° |
| 2026-05-08 23:20 | 44.85900 | -76.17420 | 8521 ft | 175 kts | 206° |
| 2026-05-08 23:20 | 44.84746 | -76.17963 | 8528 ft | 175 kts | 206° |
| 2026-05-08 23:21 | 44.83596 | -76.18504 | 8531 ft | 174 kts | 206° |
| 2026-05-08 23:21 | 44.82459 | -76.19038 | 8530 ft | 174 kts | 206° |
| 2026-05-08 23:21 | 44.81291 | -76.19571 | 8532 ft | 174 kts | 205° |
| 2026-05-08 23:21 | 44.80147 | -76.20065 | 8531 ft | 175 kts | 204° |
| 2026-05-08 23:22 | 44.78979 | -76.20541 | 8525 ft | 175 kts | 203° |
| 2026-05-08 23:22 | 44.77856 | -76.21127 | 8540 ft | 169 kts | 216° |
| 2026-05-08 23:22 | 44.76936 | -76.22109 | 8544 ft | 164 kts | 231° |
| 2026-05-08 23:22 | 44.76272 | -76.23385 | 8542 ft | 161 kts | 246° |
| 2026-05-08 23:23 | 44.75816 | -76.24809 | 8540 ft | 159 kts | 250° |
| 2026-05-08 23:23 | 44.75357 | -76.26226 | 8539 ft | 159 kts | 248° |
| 2026-05-08 23:23 | 44.74884 | -76.27638 | 8530 ft | 159 kts | 249° |
| 2026-05-08 23:23 | 44.74409 | -76.29045 | 8529 ft | 159 kts | 249° |
| 2026-05-08 23:24 | 44.73933 | -76.30454 | 8527 ft | 160 kts | 249° |
| 2026-05-08 23:24 | 44.73458 | -76.31863 | 8528 ft | 159 kts | 249° |
| 2026-05-08 23:24 | 44.72981 | -76.33271 | 8529 ft | 160 kts | 249° |
| 2026-05-08 23:24 | 44.72505 | -76.34682 | 8530 ft | 160 kts | 249° |
| 2026-05-08 23:25 | 44.72027 | -76.36093 | 8532 ft | 160 kts | 249° |
| 2026-05-08 23:25 | 44.71551 | -76.37500 | 8533 ft | 160 kts | 249° |
| 2026-05-08 23:25 | 44.71073 | -76.38910 | 8534 ft | 160 kts | 249° |
| 2026-05-08 23:25 | 44.70596 | -76.40317 | 8534 ft | 160 kts | 249° |
| 2026-05-08 23:26 | 44.70118 | -76.41727 | 8537 ft | 159 kts | 249° |
| 2026-05-08 23:26 | 44.69640 | -76.43133 | 8538 ft | 159 kts | 249° |
| 2026-05-08 23:26 | 44.69164 | -76.44539 | 8539 ft | 159 kts | 249° |
| 2026-05-08 23:26 | 44.68686 | -76.45944 | 8540 ft | 160 kts | 249° |
| 2026-05-08 23:27 | 44.68208 | -76.47355 | 8541 ft | 160 kts | 249° |
| 2026-05-08 23:27 | 44.67728 | -76.48766 | 8541 ft | 160 kts | 249° |
| 2026-05-08 23:27 | 44.67248 | -76.50175 | 8541 ft | 160 kts | 249° |
| 2026-05-08 23:27 | 44.66768 | -76.51588 | 8542 ft | 160 kts | 249° |
| 2026-05-08 23:28 | 44.66288 | -76.52996 | 8547 ft | 160 kts | 249° |
| 2026-05-08 23:28 | 44.65809 | -76.54404 | 8546 ft | 160 kts | 249° |
| 2026-05-08 23:28 | 44.65329 | -76.55812 | 8547 ft | 160 kts | 249° |
| 2026-05-08 23:28 | 44.64846 | -76.57226 | 8547 ft | 160 kts | 249° |
| 2026-05-08 23:29 | 44.64366 | -76.58636 | 8552 ft | 160 kts | 249° |
| 2026-05-08 23:29 | 44.63883 | -76.60049 | 8550 ft | 160 kts | 249° |
| 2026-05-08 23:29 | 44.63403 | -76.61455 | 8550 ft | 160 kts | 249° |
| 2026-05-08 23:29 | 44.62921 | -76.62866 | 8546 ft | 160 kts | 249° |
| 2026-05-08 23:30 | 44.62441 | -76.64272 | 8545 ft | 159 kts | 249° |
| 2026-05-08 23:30 | 44.61961 | -76.65671 | 8547 ft | 159 kts | 249° |
| 2026-05-08 23:30 | 44.61480 | -76.67077 | 8547 ft | 160 kts | 249° |
| 2026-05-08 23:30 | 44.61000 | -76.68478 | 8548 ft | 159 kts | 249° |
| 2026-05-08 23:31 | 44.60519 | -76.69881 | 8540 ft | 159 kts | 249° |
| 2026-05-08 23:31 | 44.60040 | -76.71281 | 8541 ft | 159 kts | 249° |
| 2026-05-08 23:31 | 44.59558 | -76.72684 | 8541 ft | 160 kts | 249° |
| 2026-05-08 23:31 | 44.59077 | -76.74087 | 8541 ft | 160 kts | 249° |
| 2026-05-08 23:32 | 44.58594 | -76.75493 | 8546 ft | 160 kts | 249° |
| 2026-05-08 23:32 | 44.58112 | -76.76897 | 8544 ft | 160 kts | 249° |
| 2026-05-08 23:32 | 44.57627 | -76.78308 | 8511 ft | 161 kts | 249° |
| 2026-05-08 23:32 | 44.57142 | -76.79719 | 8503 ft | 160 kts | 249° |
| 2026-05-08 23:33 | 44.56664 | -76.81108 | 8503 ft | 160 kts | 249° |
| 2026-05-08 23:33 | 44.56175 | -76.82526 | 8502 ft | 160 kts | 249° |
| 2026-05-08 23:33 | 44.55693 | -76.83927 | 8495 ft | 159 kts | 249° |
| 2026-05-08 23:33 | 44.55211 | -76.85328 | 8504 ft | 159 kts | 249° |
| 2026-05-08 23:34 | 44.54728 | -76.86725 | 8506 ft | 159 kts | 249° |
| 2026-05-08 23:34 | 44.54252 | -76.88107 | 8511 ft | 160 kts | 249° |
| 2026-05-08 23:34 | 44.53761 | -76.89529 | 8510 ft | 160 kts | 249° |
| 2026-05-08 23:34 | 44.53285 | -76.90910 | 8510 ft | 160 kts | 249° |
| 2026-05-08 23:35 | 44.52793 | -76.92332 | 8514 ft | 160 kts | 249° |
| 2026-05-08 23:35 | 44.52314 | -76.93719 | 8505 ft | 160 kts | 249° |
| 2026-05-08 23:35 | 44.51828 | -76.95122 | 8515 ft | 160 kts | 249° |
| 2026-05-08 23:35 | 44.51342 | -76.96526 | 8502 ft | 160 kts | 249° |
| 2026-05-08 23:36 | 44.50855 | -76.97934 | 8504 ft | 160 kts | 249° |
| 2026-05-08 23:36 | 44.50368 | -76.99337 | 8501 ft | 160 kts | 249° |
| 2026-05-08 23:36 | 44.49883 | -77.00740 | 8505 ft | 160 kts | 249° |
| 2026-05-08 23:36 | 44.49395 | -77.02144 | 8505 ft | 160 kts | 249° |
| 2026-05-08 23:37 | 44.48909 | -77.03547 | 8502 ft | 160 kts | 249° |
| 2026-05-08 23:37 | 44.48423 | -77.04946 | 8502 ft | 160 kts | 249° |
| 2026-05-08 23:37 | 44.47937 | -77.06345 | 8509 ft | 160 kts | 249° |
| 2026-05-08 23:37 | 44.47451 | -77.07745 | 8512 ft | 160 kts | 249° |
| 2026-05-08 23:38 | 44.46965 | -77.09141 | 8504 ft | 160 kts | 249° |
| 2026-05-08 23:38 | 44.46479 | -77.10540 | 8507 ft | 160 kts | 249° |
| 2026-05-08 23:38 | 44.45991 | -77.11940 | 8490 ft | 160 kts | 249° |
| 2026-05-08 23:38 | 44.45508 | -77.13330 | 8499 ft | 160 kts | 249° |
| 2026-05-08 23:39 | 44.45017 | -77.14737 | 8499 ft | 160 kts | 249° |
| 2026-05-08 23:39 | 44.44530 | -77.16134 | 8496 ft | 160 kts | 250° |
| 2026-05-08 23:39 | 44.44042 | -77.17534 | 8492 ft | 160 kts | 250° |
| 2026-05-08 23:39 | 44.43553 | -77.18933 | 8485 ft | 160 kts | 250° |
| 2026-05-08 23:40 | 44.43066 | -77.20332 | 8495 ft | 160 kts | 250° |
| 2026-05-08 23:40 | 44.42577 | -77.21728 | 8493 ft | 160 kts | 250° |
| 2026-05-08 23:40 | 44.42089 | -77.23127 | 8496 ft | 160 kts | 250° |
| 2026-05-08 23:40 | 44.41599 | -77.24525 | 8494 ft | 160 kts | 250° |
| 2026-05-08 23:41 | 44.41111 | -77.25921 | 8489 ft | 160 kts | 250° |
| 2026-05-08 23:41 | 44.40623 | -77.27318 | 8503 ft | 160 kts | 250° |
| 2026-05-08 23:41 | 44.40134 | -77.28712 | 8501 ft | 160 kts | 250° |
| 2026-05-08 23:41 | 44.39646 | -77.30108 | 8502 ft | 160 kts | 250° |
| 2026-05-08 23:42 | 44.39155 | -77.31506 | 8500 ft | 161 kts | 250° |
| 2026-05-08 23:42 | 44.38665 | -77.32907 | 8499 ft | 160 kts | 250° |
| 2026-05-08 23:42 | 44.38174 | -77.34302 | 8497 ft | 160 kts | 250° |
| 2026-05-08 23:42 | 44.37685 | -77.35697 | 8485 ft | 160 kts | 250° |
| 2026-05-08 23:43 | 44.37193 | -77.37095 | 8494 ft | 160 kts | 250° |
| 2026-05-08 23:43 | 44.36703 | -77.38490 | 8492 ft | 160 kts | 250° |
| 2026-05-08 23:43 | 44.36213 | -77.39886 | 8497 ft | 160 kts | 250° |
| 2026-05-08 23:43 | 44.35724 | -77.41273 | 8501 ft | 159 kts | 250° |
| 2026-05-08 23:44 | 44.35235 | -77.42665 | 8492 ft | 160 kts | 250° |
| 2026-05-08 23:44 | 44.34744 | -77.44058 | 8500 ft | 160 kts | 250° |
| 2026-05-08 23:44 | 44.34252 | -77.45454 | 8500 ft | 161 kts | 250° |
| 2026-05-08 23:44 | 44.33759 | -77.46852 | 8500 ft | 160 kts | 250° |
| 2026-05-08 23:45 | 44.33266 | -77.48248 | 8497 ft | 160 kts | 250° |
| 2026-05-08 23:45 | 44.32781 | -77.49623 | 8495 ft | 160 kts | 250° |
| 2026-05-08 23:45 | 44.32290 | -77.51011 | 8497 ft | 159 kts | 250° |
| 2026-05-08 23:45 | 44.31800 | -77.52402 | 8494 ft | 160 kts | 250° |
| 2026-05-08 23:46 | 44.31308 | -77.53795 | 8494 ft | 160 kts | 250° |
| 2026-05-08 23:46 | 44.30816 | -77.55185 | 8489 ft | 160 kts | 249° |
| 2026-05-08 23:46 | 44.30324 | -77.56575 | 8490 ft | 160 kts | 249° |
| 2026-05-08 23:46 | 44.29830 | -77.57968 | 8491 ft | 160 kts | 249° |
| 2026-05-08 23:47 | 44.29338 | -77.59362 | 8497 ft | 160 kts | 250° |
| 2026-05-08 23:47 | 44.28844 | -77.60757 | 8497 ft | 161 kts | 250° |
| 2026-05-08 23:47 | 44.28347 | -77.62157 | 8498 ft | 161 kts | 249° |
| 2026-05-08 23:47 | 44.27850 | -77.63559 | 8499 ft | 161 kts | 250° |
| 2026-05-08 23:48 | 44.27350 | -77.64964 | 8500 ft | 161 kts | 249° |
| 2026-05-08 23:48 | 44.26854 | -77.66364 | 8498 ft | 161 kts | 249° |
| 2026-05-08 23:48 | 44.26355 | -77.67766 | 8500 ft | 161 kts | 250° |
| 2026-05-08 23:48 | 44.25857 | -77.69167 | 8500 ft | 161 kts | 249° |
| 2026-05-08 23:49 | 44.25360 | -77.70567 | 8500 ft | 161 kts | 250° |
| 2026-05-08 23:49 | 44.24861 | -77.71968 | 8499 ft | 161 kts | 249° |
| 2026-05-08 23:49 | 44.24364 | -77.73366 | 8501 ft | 161 kts | 249° |
| 2026-05-08 23:49 | 44.23865 | -77.74765 | 8501 ft | 161 kts | 249° |
| 2026-05-08 23:50 | 44.23367 | -77.76165 | 8500 ft | 161 kts | 249° |
| 2026-05-08 23:50 | 44.22867 | -77.77566 | 8499 ft | 161 kts | 250° |
| 2026-05-08 23:50 | 44.22367 | -77.78968 | 8500 ft | 161 kts | 249° |
| 2026-05-08 23:50 | 44.21867 | -77.80369 | 8501 ft | 161 kts | 250° |
| 2026-05-08 23:51 | 44.21367 | -77.81770 | 8495 ft | 161 kts | 249° |
| 2026-05-08 23:51 | 44.20867 | -77.83168 | 8497 ft | 161 kts | 249° |
| 2026-05-08 23:51 | 44.20367 | -77.84566 | 8497 ft | 161 kts | 249° |
| 2026-05-08 23:51 | 44.19868 | -77.85964 | 8499 ft | 161 kts | 249° |
| 2026-05-08 23:52 | 44.19367 | -77.87363 | 8499 ft | 161 kts | 250° |
| 2026-05-08 23:52 | 44.18866 | -77.88759 | 8499 ft | 161 kts | 249° |
| 2026-05-08 23:52 | 44.18366 | -77.90157 | 8496 ft | 161 kts | 249° |
| 2026-05-08 23:52 | 44.17864 | -77.91558 | 8496 ft | 161 kts | 249° |
| 2026-05-08 23:53 | 44.17363 | -77.92956 | 8496 ft | 161 kts | 249° |
| 2026-05-08 23:53 | 44.16868 | -77.94334 | 8499 ft | 162 kts | 249° |
| 2026-05-08 23:53 | 44.16366 | -77.95738 | 8504 ft | 162 kts | 249° |
| 2026-05-08 23:53 | 44.15861 | -77.97142 | 8494 ft | 162 kts | 249° |
| 2026-05-08 23:54 | 44.15357 | -77.98543 | 8492 ft | 162 kts | 249° |
| 2026-05-08 23:54 | 44.14855 | -77.99944 | 8493 ft | 162 kts | 249° |
| 2026-05-08 23:54 | 44.14351 | -78.01340 | 8494 ft | 161 kts | 249° |
| 2026-05-08 23:55 | 44.13341 | -78.04151 | 8491 ft | 161 kts | 249° |
| 2026-05-08 23:55 | 44.12844 | -78.05528 | 8491 ft | 161 kts | 249° |
| 2026-05-08 23:55 | 44.12334 | -78.06942 | 8491 ft | 161 kts | 249° |
| 2026-05-08 23:55 | 44.11831 | -78.08337 | 8491 ft | 161 kts | 249° |
| 2026-05-08 23:56 | 44.11333 | -78.09716 | 8489 ft | 162 kts | 249° |
| 2026-05-08 23:56 | 44.10831 | -78.11110 | 8489 ft | 161 kts | 249° |
| 2026-05-08 23:56 | 44.10328 | -78.12502 | 8489 ft | 161 kts | 249° |
| 2026-05-08 23:56 | 44.09825 | -78.13894 | 8489 ft | 161 kts | 249° |
| 2026-05-08 23:57 | 44.09321 | -78.15286 | 8489 ft | 161 kts | 249° |
| 2026-05-08 23:57 | 44.08819 | -78.16676 | 8488 ft | 161 kts | 249° |
| 2026-05-08 23:57 | 44.08317 | -78.18063 | 8489 ft | 161 kts | 249° |
| 2026-05-08 23:57 | 44.07813 | -78.19453 | 8490 ft | 161 kts | 249° |
| 2026-05-08 23:58 | 44.07311 | -78.20842 | 8491 ft | 161 kts | 249° |
| 2026-05-08 23:58 | 44.06806 | -78.22232 | 8487 ft | 161 kts | 249° |
| 2026-05-08 23:58 | 44.06303 | -78.23621 | 8489 ft | 161 kts | 249° |
| 2026-05-08 23:58 | 44.05799 | -78.25009 | 8490 ft | 161 kts | 249° |
| 2026-05-08 23:59 | 44.05296 | -78.26396 | 8490 ft | 161 kts | 249° |
| 2026-05-08 23:59 | 44.04792 | -78.27785 | 8491 ft | 161 kts | 249° |
| 2026-05-08 23:59 | 44.04289 | -78.29172 | 8489 ft | 161 kts | 249° |
| 2026-05-08 23:59 | 44.03783 | -78.30563 | 8490 ft | 161 kts | 249° |
| 2026-05-09 00:00 | 44.03279 | -78.31947 | 8489 ft | 161 kts | 249° |
| 2026-05-09 00:00 | 44.02775 | -78.33336 | 8489 ft | 161 kts | 249° |
| 2026-05-09 00:00 | 44.02269 | -78.34723 | 8489 ft | 161 kts | 249° |
| 2026-05-09 00:00 | 44.01765 | -78.36110 | 8479 ft | 161 kts | 248° |
| 2026-05-09 00:01 | 44.01257 | -78.37501 | 8479 ft | 161 kts | 248° |
| 2026-05-09 00:01 | 44.00751 | -78.38890 | 8480 ft | 162 kts | 248° |
| 2026-05-09 00:01 | 44.00414 | -78.39814 | 8480 ft | 162 kts | 248° |
| 2026-05-09 00:01 | 43.99907 | -78.41204 | 8481 ft | 162 kts | 248° |
| 2026-05-09 00:02 | 43.99399 | -78.42595 | 8484 ft | 162 kts | 248° |
| 2026-05-09 00:02 | 43.98890 | -78.43990 | 8484 ft | 162 kts | 248° |
| 2026-05-09 00:02 | 43.98380 | -78.45382 | 8485 ft | 162 kts | 248° |
| 2026-05-09 00:02 | 43.97871 | -78.46776 | 8487 ft | 162 kts | 248° |
| 2026-05-09 00:03 | 43.97360 | -78.48171 | 8490 ft | 162 kts | 248° |
| 2026-05-09 00:03 | 43.96851 | -78.49562 | 8491 ft | 162 kts | 248° |
| 2026-05-09 00:03 | 43.96507 | -78.50502 | 8492 ft | 162 kts | 248° |
| 2026-05-09 00:03 | 43.95832 | -78.52345 | 8494 ft | 162 kts | 248° |
| 2026-05-09 00:04 | 43.95323 | -78.53735 | 8494 ft | 162 kts | 248° |
| 2026-05-09 00:04 | 43.94813 | -78.55123 | 8496 ft | 162 kts | 248° |
| 2026-05-09 00:04 | 43.94303 | -78.56516 | 8497 ft | 162 kts | 248° |
| 2026-05-09 00:04 | 43.93792 | -78.57905 | 8499 ft | 162 kts | 248° |
| 2026-05-09 00:05 | 43.93283 | -78.59295 | 8500 ft | 162 kts | 248° |
| 2026-05-09 00:05 | 43.92771 | -78.60686 | 8501 ft | 162 kts | 248° |
| 2026-05-09 00:05 | 43.92259 | -78.62079 | 8503 ft | 162 kts | 248° |
| 2026-05-09 00:05 | 43.91747 | -78.63472 | 8503 ft | 162 kts | 248° |
| 2026-05-09 00:06 | 43.91235 | -78.64862 | 8500 ft | 162 kts | 248° |
| 2026-05-09 00:06 | 43.90721 | -78.66261 | 8418 ft | 162 kts | 248° |
| 2026-05-09 00:06 | 43.90209 | -78.67649 | 8341 ft | 161 kts | 248° |
| 2026-05-09 00:06 | 43.89699 | -78.69034 | 8240 ft | 162 kts | 248° |
| 2026-05-09 00:07 | 43.89185 | -78.70427 | 8131 ft | 162 kts | 248° |
| 2026-05-09 00:07 | 43.88672 | -78.71818 | 8016 ft | 162 kts | 248° |
| 2026-05-09 00:07 | 43.88158 | -78.73212 | 7920 ft | 163 kts | 248° |
| 2026-05-09 00:07 | 43.87642 | -78.74609 | 7819 ft | 163 kts | 247° |
| 2026-05-09 00:08 | 43.87127 | -78.76003 | 7702 ft | 163 kts | 248° |
| 2026-05-09 00:08 | 43.86609 | -78.77402 | 7586 ft | 163 kts | 247° |
| 2026-05-09 00:08 | 43.86093 | -78.78799 | 7486 ft | 163 kts | 247° |
| 2026-05-09 00:08 | 43.85576 | -78.80192 | 7384 ft | 163 kts | 247° |
| 2026-05-09 00:09 | 43.85061 | -78.81588 | 7282 ft | 163 kts | 247° |
| 2026-05-09 00:09 | 43.84646 | -78.83039 | 7186 ft | 161 kts | 256° |
| 2026-05-09 00:09 | 43.84401 | -78.84532 | 7090 ft | 161 kts | 262° |
| 2026-05-09 00:09 | 43.84198 | -78.86063 | 6989 ft | 162 kts | 262° |
| 2026-05-09 00:10 | 43.84013 | -78.87621 | 6887 ft | 162 kts | 263° |
| 2026-05-09 00:10 | 43.83858 | -78.89163 | 6787 ft | 162 kts | 264° |
| 2026-05-09 00:10 | 43.83706 | -78.90710 | 6665 ft | 163 kts | 264° |
| 2026-05-09 00:10 | 43.83554 | -78.92274 | 6508 ft | 165 kts | 264° |
| 2026-05-09 00:11 | 43.83403 | -78.93860 | 6331 ft | 167 kts | 264° |
| 2026-05-09 00:11 | 43.83255 | -78.95458 | 6122 ft | 166 kts | 264° |
| 2026-05-09 00:11 | 43.83107 | -78.97042 | 5903 ft | 166 kts | 264° |
| 2026-05-09 00:11 | 43.82961 | -78.98631 | 5685 ft | 166 kts | 264° |
| 2026-05-09 00:12 | 43.82817 | -79.00221 | 5451 ft | 167 kts | 264° |
| 2026-05-09 00:12 | 43.82674 | -79.01813 | 5226 ft | 167 kts | 264° |
| 2026-05-09 00:12 | 43.82536 | -79.03383 | 5112 ft | 162 kts | 264° |
| 2026-05-09 00:12 | 43.82276 | -79.04865 | 4997 ft | 161 kts | 247° |
| 2026-05-09 00:13 | 43.81608 | -79.06093 | 4972 ft | 159 kts | 233° |
| 2026-05-09 00:13 | 43.80863 | -79.07229 | 4874 ft | 160 kts | 230° |
| 2026-05-09 00:13 | 43.80071 | -79.08335 | 4749 ft | 162 kts | 229° |
| 2026-05-09 00:13 | 43.79270 | -79.09445 | 4619 ft | 163 kts | 229° |
| 2026-05-09 00:14 | 43.78470 | -79.10556 | 4486 ft | 163 kts | 229° |
| 2026-05-09 00:14 | 43.77670 | -79.11671 | 4356 ft | 163 kts | 229° |
| 2026-05-09 00:14 | 43.76876 | -79.12791 | 4226 ft | 163 kts | 229° |
| 2026-05-09 00:14 | 43.76083 | -79.13916 | 4086 ft | 163 kts | 229° |
| 2026-05-09 00:15 | 43.75281 | -79.15032 | 3947 ft | 164 kts | 224° |
| 2026-05-09 00:15 | 43.74344 | -79.15939 | 3815 ft | 166 kts | 213° |
| 2026-05-09 00:15 | 43.73314 | -79.16661 | 3684 ft | 166 kts | 208° |
| 2026-05-09 00:15 | 43.72259 | -79.17313 | 3555 ft | 166 kts | 207° |
| 2026-05-09 00:16 | 43.71206 | -79.17957 | 3419 ft | 166 kts | 207° |
| 2026-05-09 00:16 | 43.70155 | -79.18610 | 3290 ft | 166 kts | 208° |
| 2026-05-09 00:16 | 43.69118 | -79.19306 | 3167 ft | 166 kts | 209° |
| 2026-05-09 00:16 | 43.68089 | -79.20010 | 3064 ft | 165 kts | 209° |
| 2026-05-09 00:17 | 43.67078 | -79.20741 | 2963 ft | 163 kts | 213° |
| 2026-05-09 00:17 | 43.66122 | -79.21578 | 2861 ft | 162 kts | 215° |
| 2026-05-09 00:17 | 43.65177 | -79.22432 | 2758 ft | 162 kts | 215° |
| 2026-05-09 00:17 | 43.64238 | -79.23289 | 2655 ft | 161 kts | 215° |
| 2026-05-09 00:18 | 43.63376 | -79.24262 | 2555 ft | 161 kts | 229° |
| 2026-05-09 00:18 | 43.62733 | -79.25517 | 2458 ft | 160 kts | 238° |
| 2026-05-09 00:18 | 43.62262 | -79.26910 | 2360 ft | 161 kts | 248° |
| 2026-05-09 00:18 | 43.61930 | -79.28385 | 2259 ft | 161 kts | 252° |
| 2026-05-09 00:19 | 43.61612 | -79.29867 | 2156 ft | 161 kts | 252° |
| 2026-05-09 00:19 | 43.61307 | -79.31353 | 2052 ft | 160 kts | 252° |
| 2026-05-09 00:19 | 43.61011 | -79.32807 | 1948 ft | 154 kts | 252° |
| 2026-05-09 00:19 | 43.60731 | -79.34212 | 1844 ft | 150 kts | 252° |
| 2026-05-09 00:20 | 43.60461 | -79.35583 | 1725 ft | 145 kts | 252° |
| 2026-05-09 00:20 | 43.60208 | -79.36911 | 1568 ft | 142 kts | 252° |
| 2026-05-09 00:20 | 43.59957 | -79.38218 | 1411 ft | 140 kts | 252° |
| 2026-05-09 00:20 | 43.59707 | -79.39501 | 1306 ft | 137 kts | 252° |
| 2026-05-09 00:21 | 43.59464 | -79.40750 | 1279 ft | 132 kts | 252° |
| 2026-05-09 00:21 | 43.59228 | -79.41955 | 1290 ft | 128 kts | 252° |
| 2026-05-09 00:21 | 43.59001 | -79.43135 | 1291 ft | 127 kts | 251° |
| 2026-05-09 00:21 | 43.58896 | -79.44346 | 1295 ft | 131 kts | 276° |
| 2026-05-09 00:22 | 43.59287 | -79.45477 | 1270 ft | 135 kts | 308° |
| 2026-05-09 00:22 | 43.60077 | -79.46217 | 1192 ft | 142 kts | 339° |
| 2026-05-09 00:22 | 43.61044 | -79.46188 | 1110 ft | 143 kts | 27° |
| 2026-05-09 00:22 | 43.61642 | -79.45183 | 1107 ft | 136 kts | 74° |
| 2026-05-09 00:23 | 43.61887 | -79.43945 | 982 ft | 130 kts | 81° |
| 2026-05-09 00:23 | 43.62145 | -79.42770 | 799 ft | 124 kts | 73° |
| 2026-05-09 00:23 | 43.62423 | -79.41690 | 580 ft | 110 kts | 76° |
| 2026-05-09 00:23 | 43.62632 | -79.40811 | 427 ft | 85 kts | 74° |
| 2026-05-09 00:24 | 43.62807 | -79.40089 | 306 ft | 75 kts | 73° |
| 2026-05-09 00:24 | 43.62962 | -79.39447 | 265 ft | 61 kts | 70° |
| 2026-05-09 00:24 | 43.63062 | -79.39062 | 261 ft | 27 kts | 68° |
| 2026-05-09 00:24 | 43.63134 | -79.38987 | 259 ft | 19 kts | 276° |
| 2026-05-09 00:25 | 43.63088 | -79.39189 | 264 ft | 25 kts | 246° |